sensor_id;sensor_type;location;lat;lon;timestamp;P1;durP1;ratioP1;P2;durP2;ratioP2
58412;SDS011;44209;52.952;6.790;2023-03-29T00:00:44;5.83;;;3.60;;
58412;SDS011;44209;52.952;6.790;2023-03-29T00:03:10;4.93;;;4.03;;
58412;SDS011;44209;52.952;6.790;2023-03-29T00:05:38;7.27;;;4.10;;
58412;SDS011;44209;52.952;6.790;2023-03-29T00:08:05;6.73;;;3.97;;
58412;SDS011;44209;52.952;6.790;2023-03-29T00:10:32;6.73;;;4.13;;
58412;SDS011;44209;52.952;6.790;2023-03-29T00:12:59;6.30;;;3.90;;
58412;SDS011;44209;52.952;6.790;2023-03-29T00:15:26;6.37;;;4.07;;
58412;SDS011;44209;52.952;6.790;2023-03-29T00:17:52;7.27;;;3.90;;
58412;SDS011;44209;52.952;6.790;2023-03-29T00:20:18;5.47;;;4.60;;
58412;SDS011;44209;52.952;6.790;2023-03-29T00:22:44;5.63;;;4.20;;
58412;SDS011;44209;52.952;6.790;2023-03-29T00:25:11;5.53;;;3.87;;
58412;SDS011;44209;52.952;6.790;2023-03-29T00:27:37;5.57;;;4.20;;
58412;SDS011;44209;52.952;6.790;2023-03-29T00:30:04;5.40;;;4.10;;
58412;SDS011;44209;52.952;6.790;2023-03-29T00:32:32;9.10;;;4.70;;
58412;SDS011;44209;52.952;6.790;2023-03-29T00:34:58;6.17;;;4.30;;
58412;SDS011;44209;52.952;6.790;2023-03-29T00:37:29;5.40;;;4.50;;
58412;SDS011;44209;52.952;6.790;2023-03-29T00:39:55;5.70;;;4.20;;
58412;SDS011;44209;52.952;6.790;2023-03-29T00:42:22;9.20;;;4.67;;
58412;SDS011;44209;52.952;6.790;2023-03-29T00:47:50;6.83;;;4.67;;
58412;SDS011;44209;52.952;6.790;2023-03-29T00:52:58;7.73;;;4.87;;
58412;SDS011;44209;52.952;6.790;2023-03-29T00:57:55;8.80;;;5.20;;
58412;SDS011;44209;52.952;6.790;2023-03-29T01:00:24;7.17;;;5.03;;
58412;SDS011;44209;52.952;6.790;2023-03-29T01:02:56;7.57;;;5.13;;
58412;SDS011;44209;52.952;6.790;2023-03-29T01:05:33;7.50;;;5.67;;
58412;SDS011;44209;52.952;6.790;2023-03-29T01:08:08;6.00;;;4.90;;
58412;SDS011;44209;52.952;6.790;2023-03-29T01:10:44;9.47;;;5.20;;
58412;SDS011;44209;52.952;6.790;2023-03-29T01:13:19;7.17;;;5.27;;
58412;SDS011;44209;52.952;6.790;2023-03-29T01:15:52;8.83;;;5.33;;
58412;SDS011;44209;52.952;6.790;2023-03-29T01:18:22;6.45;;;5.35;;
58412;SDS011;44209;52.952;6.790;2023-03-29T01:20:58;9.10;;;5.50;;
58412;SDS011;44209;52.952;6.790;2023-03-29T01:32:19;7.43;;;5.57;;
58412;SDS011;44209;52.952;6.790;2023-03-29T01:34:59;8.47;;;5.60;;
58412;SDS011;44209;52.952;6.790;2023-03-29T01:37:38;8.30;;;5.93;;
58412;SDS011;44209;52.952;6.790;2023-03-29T01:40:11;10.70;;;6.10;;
58412;SDS011;44209;52.952;6.790;2023-03-29T01:42:43;9.00;;;6.07;;
58412;SDS011;44209;52.952;6.790;2023-03-29T01:53:30;7.97;;;6.00;;
58412;SDS011;44209;52.952;6.790;2023-03-29T01:56:06;7.13;;;5.90;;
58412;SDS011;44209;52.952;6.790;2023-03-29T01:58:37;10.13;;;6.00;;
58412;SDS011;44209;52.952;6.790;2023-03-29T02:01:07;7.77;;;5.63;;
58412;SDS011;44209;52.952;6.790;2023-03-29T02:03:34;7.27;;;5.43;;
58412;SDS011;44209;52.952;6.790;2023-03-29T02:06:10;7.35;;;5.55;;
58412;SDS011;44209;52.952;6.790;2023-03-29T02:08:38;8.17;;;5.50;;
58412;SDS011;44209;52.952;6.790;2023-03-29T02:11:11;7.33;;;6.10;;
58412;SDS011;44209;52.952;6.790;2023-03-29T02:13:38;7.93;;;5.40;;
58412;SDS011;44209;52.952;6.790;2023-03-29T02:16:10;8.47;;;6.63;;
58412;SDS011;44209;52.952;6.790;2023-03-29T02:18:39;7.33;;;5.70;;
58412;SDS011;44209;52.952;6.790;2023-03-29T02:21:08;10.10;;;6.47;;
58412;SDS011;44209;52.952;6.790;2023-03-29T02:23:42;9.37;;;6.50;;
58412;SDS011;44209;52.952;6.790;2023-03-29T02:26:16;9.50;;;7.03;;
58412;SDS011;44209;52.952;6.790;2023-03-29T02:28:47;9.73;;;6.77;;
58412;SDS011;44209;52.952;6.790;2023-03-29T02:33:50;12.13;;;8.23;;
58412;SDS011;44209;52.952;6.790;2023-03-29T02:36:33;9.83;;;8.00;;
58412;SDS011;44209;52.952;6.790;2023-03-29T02:39:14;14.27;;;9.27;;
58412;SDS011;44209;52.952;6.790;2023-03-29T02:41:56;12.43;;;7.85;;
58412;SDS011;44209;52.952;6.790;2023-03-29T02:47:34;11.57;;;8.40;;
58412;SDS011;44209;52.952;6.790;2023-03-29T02:50:28;11.13;;;8.90;;
58412;SDS011;44209;52.952;6.790;2023-03-29T02:53:21;15.63;;;9.07;;
58412;SDS011;44209;52.952;6.790;2023-03-29T02:55:58;15.00;;;9.63;;
58412;SDS011;44209;52.952;6.790;2023-03-29T02:58:40;15.63;;;9.47;;
58412;SDS011;44209;52.952;6.790;2023-03-29T03:01:50;14.87;;;10.47;;
58412;SDS011;44209;52.952;6.790;2023-03-29T03:04:38;13.90;;;10.75;;
58412;SDS011;44209;52.952;6.790;2023-03-29T03:10:05;14.73;;;11.07;;
58412;SDS011;44209;52.952;6.790;2023-03-29T03:12:34;16.10;;;11.30;;
58412;SDS011;44209;52.952;6.790;2023-03-29T03:15:07;16.07;;;11.60;;
58412;SDS011;44209;52.952;6.790;2023-03-29T03:17:50;20.00;;;12.10;;
58412;SDS011;44209;52.952;6.790;2023-03-29T03:23:48;18.80;;;12.37;;
58412;SDS011;44209;52.952;6.790;2023-03-29T03:26:15;18.40;;;12.30;;
58412;SDS011;44209;52.952;6.790;2023-03-29T03:28:49;16.63;;;12.97;;
58412;SDS011;44209;52.952;6.790;2023-03-29T03:31:37;17.43;;;12.77;;
58412;SDS011;44209;52.952;6.790;2023-03-29T03:34:10;19.73;;;13.30;;
58412;SDS011;44209;52.952;6.790;2023-03-29T03:36:46;20.87;;;13.07;;
58412;SDS011;44209;52.952;6.790;2023-03-29T03:39:12;19.60;;;13.47;;
58412;SDS011;44209;52.952;6.790;2023-03-29T03:41:38;20.13;;;13.57;;
58412;SDS011;44209;52.952;6.790;2023-03-29T03:44:22;19.13;;;13.07;;
58412;SDS011;44209;52.952;6.790;2023-03-29T03:46:48;21.00;;;13.70;;
58412;SDS011;44209;52.952;6.790;2023-03-29T03:49:17;20.87;;;13.13;;
58412;SDS011;44209;52.952;6.790;2023-03-29T03:51:53;18.33;;;13.37;;
58412;SDS011;44209;52.952;6.790;2023-03-29T03:54:28;19.92;;;12.82;;
58412;SDS011;44209;52.952;6.790;2023-03-29T03:56:54;21.87;;;14.33;;
58412;SDS011;44209;52.952;6.790;2023-03-29T03:59:41;20.37;;;13.40;;
58412;SDS011;44209;52.952;6.790;2023-03-29T04:02:23;20.13;;;14.37;;
58412;SDS011;44209;52.952;6.790;2023-03-29T04:04:52;22.20;;;13.63;;
58412;SDS011;44209;52.952;6.790;2023-03-29T04:07:22;19.60;;;14.27;;
58412;SDS011;44209;52.952;6.790;2023-03-29T04:09:58;21.23;;;13.57;;
58412;SDS011;44209;52.952;6.790;2023-03-29T04:12:24;21.20;;;12.90;;
58412;SDS011;44209;52.952;6.790;2023-03-29T04:14:51;20.80;;;13.87;;
58412;SDS011;44209;52.952;6.790;2023-03-29T04:17:20;21.40;;;13.80;;
58412;SDS011;44209;52.952;6.790;2023-03-29T04:19:48;17.63;;;12.70;;
58412;SDS011;44209;52.952;6.790;2023-03-29T04:22:25;20.08;;;14.32;;
58412;SDS011;44209;52.952;6.790;2023-03-29T04:24:53;19.27;;;13.53;;
58412;SDS011;44209;52.952;6.790;2023-03-29T04:27:21;18.00;;;12.20;;
58412;SDS011;44209;52.952;6.790;2023-03-29T04:35:51;19.20;;;12.87;;
58412;SDS011;44209;52.952;6.790;2023-03-29T04:38:20;18.53;;;13.17;;
58412;SDS011;44209;52.952;6.790;2023-03-29T04:41:06;20.03;;;13.00;;
58412;SDS011;44209;52.952;6.790;2023-03-29T04:43:37;19.95;;;13.55;;
58412;SDS011;44209;52.952;6.790;2023-03-29T04:46:08;19.27;;;13.50;;
58412;SDS011;44209;52.952;6.790;2023-03-29T04:48:34;18.37;;;13.80;;
58412;SDS011;44209;52.952;6.790;2023-03-29T04:51:01;21.63;;;13.20;;
58412;SDS011;44209;52.952;6.790;2023-03-29T04:53:27;20.43;;;13.57;;
58412;SDS011;44209;52.952;6.790;2023-03-29T04:55:53;21.47;;;14.17;;
58412;SDS011;44209;52.952;6.790;2023-03-29T04:58:19;19.03;;;13.47;;
58412;SDS011;44209;52.952;6.790;2023-03-29T05:00:45;19.87;;;14.00;;
58412;SDS011;44209;52.952;6.790;2023-03-29T05:03:12;22.10;;;14.33;;
58412;SDS011;44209;52.952;6.790;2023-03-29T05:05:38;19.77;;;13.37;;
58412;SDS011;44209;52.952;6.790;2023-03-29T05:08:05;21.50;;;14.23;;
58412;SDS011;44209;52.952;6.790;2023-03-29T05:10:34;22.43;;;14.30;;
58412;SDS011;44209;52.952;6.790;2023-03-29T05:13:00;19.73;;;14.13;;
58412;SDS011;44209;52.952;6.790;2023-03-29T05:15:28;20.07;;;13.07;;
58412;SDS011;44209;52.952;6.790;2023-03-29T05:17:55;21.73;;;15.03;;
58412;SDS011;44209;52.952;6.790;2023-03-29T05:20:23;18.70;;;13.57;;
58412;SDS011;44209;52.952;6.790;2023-03-29T05:22:52;18.43;;;14.33;;
58412;SDS011;44209;52.952;6.790;2023-03-29T05:25:18;18.67;;;13.70;;
58412;SDS011;44209;52.952;6.790;2023-03-29T05:27:44;20.63;;;13.20;;
58412;SDS011;44209;52.952;6.790;2023-03-29T05:30:11;21.60;;;14.00;;
58412;SDS011;44209;52.952;6.790;2023-03-29T05:32:39;18.73;;;13.70;;
58412;SDS011;44209;52.952;6.790;2023-03-29T05:35:06;22.50;;;14.47;;
58412;SDS011;44209;52.952;6.790;2023-03-29T05:37:33;21.33;;;14.27;;
58412;SDS011;44209;52.952;6.790;2023-03-29T05:40:03;22.27;;;15.13;;
58412;SDS011;44209;52.952;6.790;2023-03-29T05:42:32;19.33;;;12.93;;
58412;SDS011;44209;52.952;6.790;2023-03-29T05:44:58;20.97;;;14.33;;
58412;SDS011;44209;52.952;6.790;2023-03-29T05:47:27;20.80;;;14.73;;
58412;SDS011;44209;52.952;6.790;2023-03-29T05:49:54;21.80;;;15.17;;
58412;SDS011;44209;52.952;6.790;2023-03-29T05:52:24;22.13;;;15.40;;
58412;SDS011;44209;52.952;6.790;2023-03-29T05:54:50;20.80;;;14.93;;
58412;SDS011;44209;52.952;6.790;2023-03-29T05:57:16;22.97;;;15.10;;
58412;SDS011;44209;52.952;6.790;2023-03-29T05:59:41;21.30;;;14.73;;
58412;SDS011;44209;52.952;6.790;2023-03-29T06:02:08;21.70;;;16.03;;
58412;SDS011;44209;52.952;6.790;2023-03-29T06:04:35;21.70;;;15.30;;
58412;SDS011;44209;52.952;6.790;2023-03-29T06:07:01;22.83;;;15.97;;
58412;SDS011;44209;52.952;6.790;2023-03-29T06:09:29;23.53;;;16.73;;
58412;SDS011;44209;52.952;6.790;2023-03-29T06:11:56;21.77;;;15.37;;
58412;SDS011;44209;52.952;6.790;2023-03-29T06:14:23;21.17;;;15.60;;
58412;SDS011;44209;52.952;6.790;2023-03-29T06:16:49;27.93;;;19.33;;
58412;SDS011;44209;52.952;6.790;2023-03-29T06:19:15;29.70;;;21.10;;
58412;SDS011;44209;52.952;6.790;2023-03-29T06:21:44;21.43;;;15.83;;
58412;SDS011;44209;52.952;6.790;2023-03-29T06:24:10;21.60;;;15.73;;
58412;SDS011;44209;52.952;6.790;2023-03-29T06:26:36;21.30;;;16.37;;
58412;SDS011;44209;52.952;6.790;2023-03-29T06:29:01;22.97;;;15.80;;
58412;SDS011;44209;52.952;6.790;2023-03-29T06:31:28;24.83;;;16.97;;
58412;SDS011;44209;52.952;6.790;2023-03-29T06:33:55;47.60;;;18.50;;
58412;SDS011;44209;52.952;6.790;2023-03-29T06:36:22;25.10;;;16.47;;
58412;SDS011;44209;52.952;6.790;2023-03-29T06:38:48;22.07;;;15.50;;
58412;SDS011;44209;52.952;6.790;2023-03-29T06:41:14;22.13;;;15.77;;
58412;SDS011;44209;52.952;6.790;2023-03-29T06:43:39;18.37;;;15.40;;
58412;SDS011;44209;52.952;6.790;2023-03-29T06:46:06;22.87;;;16.20;;
58412;SDS011;44209;52.952;6.790;2023-03-29T06:48:35;21.93;;;15.67;;
58412;SDS011;44209;52.952;6.790;2023-03-29T06:51:02;20.13;;;14.87;;
58412;SDS011;44209;52.952;6.790;2023-03-29T06:53:28;22.67;;;14.83;;
58412;SDS011;44209;52.952;6.790;2023-03-29T06:55:54;24.30;;;14.63;;
58412;SDS011;44209;52.952;6.790;2023-03-29T06:58:20;22.53;;;15.23;;
58412;SDS011;44209;52.952;6.790;2023-03-29T07:00:46;21.50;;;14.20;;
58412;SDS011;44209;52.952;6.790;2023-03-29T07:03:12;27.97;;;15.60;;
58412;SDS011;44209;52.952;6.790;2023-03-29T07:05:44;19.02;;;13.77;;
58412;SDS011;44209;52.952;6.790;2023-03-29T07:08:11;21.77;;;14.40;;
58412;SDS011;44209;52.952;6.790;2023-03-29T07:10:39;21.40;;;14.67;;
58412;SDS011;44209;52.952;6.790;2023-03-29T07:13:07;22.53;;;14.50;;
58412;SDS011;44209;52.952;6.790;2023-03-29T07:15:37;18.73;;;13.10;;
58412;SDS011;44209;52.952;6.790;2023-03-29T07:18:05;23.03;;;15.23;;
58412;SDS011;44209;52.952;6.790;2023-03-29T07:20:31;17.77;;;13.33;;
58412;SDS011;44209;52.952;6.790;2023-03-29T07:22:57;21.07;;;13.80;;
58412;SDS011;44209;52.952;6.790;2023-03-29T07:25:24;23.50;;;14.33;;
58412;SDS011;44209;52.952;6.790;2023-03-29T07:27:51;17.60;;;13.07;;
58412;SDS011;44209;52.952;6.790;2023-03-29T07:30:19;17.37;;;13.27;;
58412;SDS011;44209;52.952;6.790;2023-03-29T07:32:47;18.80;;;12.80;;
58412;SDS011;44209;52.952;6.790;2023-03-29T07:35:14;16.70;;;12.53;;
58412;SDS011;44209;52.952;6.790;2023-03-29T07:37:42;18.20;;;13.20;;
58412;SDS011;44209;52.952;6.790;2023-03-29T07:40:10;17.13;;;12.67;;
58412;SDS011;44209;52.952;6.790;2023-03-29T07:42:46;18.80;;;12.57;;
58412;SDS011;44209;52.952;6.790;2023-03-29T07:45:13;19.97;;;12.70;;
58412;SDS011;44209;52.952;6.790;2023-03-29T07:47:47;17.13;;;12.82;;
58412;SDS011;44209;52.952;6.790;2023-03-29T07:50:14;19.77;;;12.30;;
58412;SDS011;44209;52.952;6.790;2023-03-29T07:52:41;15.80;;;11.90;;
58412;SDS011;44209;52.952;6.790;2023-03-29T07:55:08;16.97;;;12.67;;
58412;SDS011;44209;52.952;6.790;2023-03-29T07:57:35;17.73;;;12.27;;
58412;SDS011;44209;52.952;6.790;2023-03-29T08:00:02;18.10;;;12.20;;
58412;SDS011;44209;52.952;6.790;2023-03-29T08:02:48;19.27;;;11.23;;
58412;SDS011;44209;52.952;6.790;2023-03-29T08:05:15;15.67;;;11.93;;
58412;SDS011;44209;52.952;6.790;2023-03-29T08:07:42;16.87;;;11.57;;
58412;SDS011;44209;52.952;6.790;2023-03-29T08:10:15;15.57;;;10.27;;
58412;SDS011;44209;52.952;6.790;2023-03-29T08:12:46;17.67;;;11.67;;
58412;SDS011;44209;52.952;6.790;2023-03-29T08:15:13;15.13;;;10.73;;
58412;SDS011;44209;52.952;6.790;2023-03-29T08:17:40;16.67;;;12.43;;
58412;SDS011;44209;52.952;6.790;2023-03-29T08:20:07;16.77;;;11.60;;
58412;SDS011;44209;52.952;6.790;2023-03-29T08:22:35;16.07;;;10.90;;
58412;SDS011;44209;52.952;6.790;2023-03-29T08:25:02;16.10;;;11.10;;
58412;SDS011;44209;52.952;6.790;2023-03-29T08:27:28;16.13;;;10.73;;
58412;SDS011;44209;52.952;6.790;2023-03-29T08:29:55;15.27;;;11.13;;
58412;SDS011;44209;52.952;6.790;2023-03-29T08:32:20;15.87;;;11.80;;
58412;SDS011;44209;52.952;6.790;2023-03-29T08:34:46;17.97;;;11.23;;
58412;SDS011;44209;52.952;6.790;2023-03-29T08:37:12;14.47;;;10.83;;
58412;SDS011;44209;52.952;6.790;2023-03-29T08:39:39;17.10;;;11.53;;
58412;SDS011;44209;52.952;6.790;2023-03-29T08:44:47;17.35;;;11.10;;
58412;SDS011;44209;52.952;6.790;2023-03-29T08:50:10;22.30;;;11.60;;
58412;SDS011;44209;52.952;6.790;2023-03-29T08:52:42;15.17;;;10.40;;
58412;SDS011;44209;52.952;6.790;2023-03-29T08:55:41;15.90;;;10.40;;
58412;SDS011;44209;52.952;6.790;2023-03-29T08:58:19;18.80;;;11.43;;
58412;SDS011;44209;52.952;6.790;2023-03-29T09:00:53;14.60;;;10.17;;
58412;SDS011;44209;52.952;6.790;2023-03-29T09:03:22;18.20;;;10.30;;
58412;SDS011;44209;52.952;6.790;2023-03-29T09:05:53;14.23;;;9.97;;
58412;SDS011;44209;52.952;6.790;2023-03-29T09:08:24;13.33;;;9.60;;
58412;SDS011;44209;52.952;6.790;2023-03-29T09:11:01;16.37;;;10.47;;
58412;SDS011;44209;52.952;6.790;2023-03-29T09:21:44;12.37;;;8.93;;
58412;SDS011;44209;52.952;6.790;2023-03-29T09:27:26;14.00;;;9.20;;
58412;SDS011;44209;52.952;6.790;2023-03-29T09:30:11;13.53;;;9.80;;
58412;SDS011;44209;52.952;6.790;2023-03-29T09:35:41;14.13;;;9.80;;
58412;SDS011;44209;52.952;6.790;2023-03-29T09:38:17;15.03;;;9.80;;
58412;SDS011;44209;52.952;6.790;2023-03-29T09:40:52;11.77;;;9.37;;
58412;SDS011;44209;52.952;6.790;2023-03-29T09:43:24;12.80;;;9.60;;
58412;SDS011;44209;52.952;6.790;2023-03-29T09:45:55;15.63;;;10.17;;
58412;SDS011;44209;52.952;6.790;2023-03-29T09:48:25;16.17;;;9.60;;
58412;SDS011;44209;52.952;6.790;2023-03-29T09:50:53;15.33;;;9.60;;
58412;SDS011;44209;52.952;6.790;2023-03-29T09:53:19;17.20;;;10.37;;
58412;SDS011;44209;52.952;6.790;2023-03-29T09:55:47;15.87;;;9.73;;
58412;SDS011;44209;52.952;6.790;2023-03-29T09:58:24;13.57;;;10.00;;
58412;SDS011;44209;52.952;6.790;2023-03-29T10:00:51;14.60;;;9.37;;
58412;SDS011;44209;52.952;6.790;2023-03-29T10:03:24;14.60;;;9.93;;
58412;SDS011;44209;52.952;6.790;2023-03-29T10:05:52;17.08;;;9.23;;
58412;SDS011;44209;52.952;6.790;2023-03-29T10:08:25;14.60;;;9.60;;
58412;SDS011;44209;52.952;6.790;2023-03-29T10:10:53;15.25;;;9.95;;
58412;SDS011;44209;52.952;6.790;2023-03-29T10:13:26;16.57;;;10.10;;
58412;SDS011;44209;52.952;6.790;2023-03-29T10:16:03;15.30;;;9.37;;
58412;SDS011;44209;52.952;6.790;2023-03-29T10:18:32;14.63;;;9.17;;
58412;SDS011;44209;52.952;6.790;2023-03-29T10:21:03;18.17;;;10.77;;
58412;SDS011;44209;52.952;6.790;2023-03-29T10:23:34;16.10;;;10.10;;
58412;SDS011;44209;52.952;6.790;2023-03-29T10:28:29;13.90;;;9.83;;
58412;SDS011;44209;52.952;6.790;2023-03-29T10:30:57;12.27;;;9.90;;
58412;SDS011;44209;52.952;6.790;2023-03-29T10:33:26;15.43;;;10.27;;
58412;SDS011;44209;52.952;6.790;2023-03-29T10:35:58;17.83;;;10.90;;
58412;SDS011;44209;52.952;6.790;2023-03-29T10:38:29;18.87;;;10.87;;
58412;SDS011;44209;52.952;6.790;2023-03-29T10:41:01;16.13;;;10.87;;
58412;SDS011;44209;52.952;6.790;2023-03-29T10:43:37;13.60;;;10.53;;
58412;SDS011;44209;52.952;6.790;2023-03-29T10:46:10;16.93;;;11.37;;
58412;SDS011;44209;52.952;6.790;2023-03-29T10:49:00;23.97;;;13.83;;
58412;SDS011;44209;52.952;6.790;2023-03-29T10:51:36;17.47;;;10.57;;
58412;SDS011;44209;52.952;6.790;2023-03-29T10:54:08;28.40;;;14.67;;
58412;SDS011;44209;52.952;6.790;2023-03-29T10:57:12;17.33;;;11.93;;
58412;SDS011;44209;52.952;6.790;2023-03-29T11:04:45;18.60;;;11.50;;
58412;SDS011;44209;52.952;6.790;2023-03-29T11:10:50;18.50;;;11.47;;
58412;SDS011;44209;52.952;6.790;2023-03-29T11:30:29;16.20;;;11.15;;
58412;SDS011;44209;52.952;6.790;2023-03-29T11:43:28;14.00;;;10.77;;
58412;SDS011;44209;52.952;6.790;2023-03-29T11:46:12;15.00;;;10.63;;
58412;SDS011;44209;52.952;6.790;2023-03-29T11:49:25;12.82;;;10.23;;
58412;SDS011;44209;52.952;6.790;2023-03-29T11:51:46;14.75;;;10.50;;
58412;SDS011;44209;52.952;6.790;2023-03-29T11:54:27;12.57;;;9.65;;
58412;SDS011;44209;52.952;6.790;2023-03-29T12:00:02;18.08;;;9.25;;
58412;SDS011;44209;52.952;6.790;2023-03-29T12:07:47;10.25;;;8.55;;
58412;SDS011;44209;52.952;6.790;2023-03-29T12:13:40;11.55;;;8.77;;
58412;SDS011;44209;52.952;6.790;2023-03-29T12:16:32;14.02;;;8.75;;
58412;SDS011;44209;52.952;6.790;2023-03-29T12:19:01;10.77;;;8.48;;
58412;SDS011;44209;52.952;6.790;2023-03-29T12:21:33;11.57;;;8.98;;
58412;SDS011;44209;52.952;6.790;2023-03-29T12:24:00;11.23;;;8.90;;
58412;SDS011;44209;52.952;6.790;2023-03-29T12:40:46;114.25;;;16.38;;
58412;SDS011;44209;52.952;6.790;2023-03-29T12:46:00;13.77;;;9.05;;
58412;SDS011;44209;52.952;6.790;2023-03-29T12:48:31;12.70;;;8.57;;
58412;SDS011;44209;52.952;6.790;2023-03-29T12:51:01;13.20;;;7.90;;
58412;SDS011;44209;52.952;6.790;2023-03-29T12:53:35;11.02;;;9.00;;
58412;SDS011;44209;52.952;6.790;2023-03-29T12:58:39;11.48;;;8.93;;
58412;SDS011;44209;52.952;6.790;2023-03-29T13:03:48;14.20;;;8.52;;
58412;SDS011;44209;52.952;6.790;2023-03-29T13:06:33;13.07;;;8.48;;
58412;SDS011;44209;52.952;6.790;2023-03-29T13:09:31;14.60;;;8.48;;
58412;SDS011;44209;52.952;6.790;2023-03-29T13:12:05;12.38;;;8.55;;
58412;SDS011;44209;52.952;6.790;2023-03-29T13:14:33;11.38;;;7.97;;
58412;SDS011;44209;52.952;6.790;2023-03-29T13:17:05;11.55;;;8.48;;
58412;SDS011;44209;52.952;6.790;2023-03-29T13:19:46;12.55;;;9.18;;
58412;SDS011;44209;52.952;6.790;2023-03-29T13:25:31;13.32;;;8.60;;
58412;SDS011;44209;52.952;6.790;2023-03-29T13:33:05;10.95;;;7.88;;
58412;SDS011;44209;52.952;6.790;2023-03-29T13:35:53;13.50;;;8.68;;
58412;SDS011;44209;52.952;6.790;2023-03-29T13:38:42;13.43;;;8.63;;
58412;SDS011;44209;52.952;6.790;2023-03-29T13:41:26;12.63;;;9.02;;
58412;SDS011;44209;52.952;6.790;2023-03-29T13:43:57;10.90;;;8.88;;
58412;SDS011;44209;52.952;6.790;2023-03-29T13:49:11;11.57;;;8.85;;
58412;SDS011;44209;52.952;6.790;2023-03-29T13:54:31;13.70;;;9.48;;
58412;SDS011;44209;52.952;6.790;2023-03-29T13:57:10;12.85;;;9.20;;
58412;SDS011;44209;52.952;6.790;2023-03-29T14:05:17;12.35;;;9.13;;
58412;SDS011;44209;52.952;6.790;2023-03-29T14:07:51;13.30;;;9.90;;
58412;SDS011;44209;52.952;6.790;2023-03-29T14:10:23;14.02;;;9.77;;
58412;SDS011;44209;52.952;6.790;2023-03-29T14:12:51;12.02;;;9.25;;
58412;SDS011;44209;52.952;6.790;2023-03-29T14:15:20;12.27;;;8.65;;
58412;SDS011;44209;52.952;6.790;2023-03-29T14:17:54;10.73;;;8.90;;
58412;SDS011;44209;52.952;6.790;2023-03-29T14:20:21;12.15;;;9.27;;
58412;SDS011;44209;52.952;6.790;2023-03-29T14:22:48;14.63;;;9.75;;
58412;SDS011;44209;52.952;6.790;2023-03-29T14:25:15;10.05;;;8.88;;
58412;SDS011;44209;52.952;6.790;2023-03-29T14:27:42;11.93;;;9.40;;
58412;SDS011;44209;52.952;6.790;2023-03-29T14:30:22;14.10;;;10.32;;
58412;SDS011;44209;52.952;6.790;2023-03-29T14:32:52;14.15;;;10.60;;
58412;SDS011;44209;52.952;6.790;2023-03-29T14:35:19;13.43;;;11.02;;
58412;SDS011;44209;52.952;6.790;2023-03-29T14:37:51;11.95;;;10.65;;
58412;SDS011;44209;52.952;6.790;2023-03-29T14:40:19;12.77;;;10.00;;
58412;SDS011;44209;52.952;6.790;2023-03-29T14:42:46;15.13;;;11.10;;
58412;SDS011;44209;52.952;6.790;2023-03-29T14:45:14;13.85;;;11.45;;
58412;SDS011;44209;52.952;6.790;2023-03-29T14:47:41;15.18;;;11.00;;
58412;SDS011;44209;52.952;6.790;2023-03-29T14:50:25;16.33;;;10.82;;
58412;SDS011;44209;52.952;6.790;2023-03-29T14:52:53;15.20;;;10.80;;
58412;SDS011;44209;52.952;6.790;2023-03-29T14:55:21;13.38;;;11.63;;
58412;SDS011;44209;52.952;6.790;2023-03-29T14:57:49;15.40;;;10.65;;
58412;SDS011;44209;52.952;6.790;2023-03-29T15:02:52;14.82;;;11.10;;
58412;SDS011;44209;52.952;6.790;2023-03-29T15:05:24;14.07;;;11.38;;
58412;SDS011;44209;52.952;6.790;2023-03-29T15:07:59;13.93;;;11.63;;
58412;SDS011;44209;52.952;6.790;2023-03-29T15:10:26;12.88;;;10.25;;
58412;SDS011;44209;52.952;6.790;2023-03-29T15:12:52;13.90;;;11.00;;
58412;SDS011;44209;52.952;6.790;2023-03-29T15:15:18;15.23;;;12.38;;
58412;SDS011;44209;52.952;6.790;2023-03-29T15:17:44;13.70;;;11.43;;
58412;SDS011;44209;52.952;6.790;2023-03-29T15:22:48;15.63;;;11.68;;
58412;SDS011;44209;52.952;6.790;2023-03-29T15:25:37;16.50;;;12.73;;
58412;SDS011;44209;52.952;6.790;2023-03-29T15:28:22;16.00;;;12.35;;
58412;SDS011;44209;52.952;6.790;2023-03-29T15:30:55;13.13;;;11.63;;
58412;SDS011;44209;52.952;6.790;2023-03-29T15:33:23;15.07;;;11.65;;
58412;SDS011;44209;52.952;6.790;2023-03-29T15:38:21;16.88;;;11.45;;
58412;SDS011;44209;52.952;6.790;2023-03-29T15:40:46;14.30;;;11.63;;
58412;SDS011;44209;52.952;6.790;2023-03-29T15:43:12;13.63;;;11.50;;
58412;SDS011;44209;52.952;6.790;2023-03-29T15:45:38;13.43;;;11.50;;
58412;SDS011;44209;52.952;6.790;2023-03-29T15:48:14;13.50;;;10.77;;
58412;SDS011;44209;52.952;6.790;2023-03-29T15:50:45;15.32;;;11.63;;
58412;SDS011;44209;52.952;6.790;2023-03-29T15:53:12;13.95;;;11.32;;
58412;SDS011;44209;52.952;6.790;2023-03-29T15:55:38;12.90;;;11.25;;
58412;SDS011;44209;52.952;6.790;2023-03-29T15:58:08;13.95;;;11.55;;
58412;SDS011;44209;52.952;6.790;2023-03-29T16:00:39;13.23;;;11.15;;
58412;SDS011;44209;52.952;6.790;2023-03-29T16:03:10;15.82;;;11.90;;
58412;SDS011;44209;52.952;6.790;2023-03-29T16:05:39;15.65;;;13.93;;
58412;SDS011;44209;52.952;6.790;2023-03-29T16:08:07;16.55;;;12.63;;
58412;SDS011;44209;52.952;6.790;2023-03-29T16:10:34;15.90;;;13.38;;
58412;SDS011;44209;52.952;6.790;2023-03-29T16:13:00;19.83;;;17.75;;
58412;SDS011;44209;52.952;6.790;2023-03-29T16:15:26;21.95;;;19.63;;
58412;SDS011;44209;52.952;6.790;2023-03-29T16:17:52;19.30;;;13.65;;
58412;SDS011;44209;52.952;6.790;2023-03-29T16:20:17;13.60;;;11.77;;
58412;SDS011;44209;52.952;6.790;2023-03-29T16:22:47;17.63;;;12.93;;
58412;SDS011;44209;52.952;6.790;2023-03-29T16:25:14;15.20;;;13.38;;
58412;SDS011;44209;52.952;6.790;2023-03-29T16:27:42;25.35;;;22.65;;
58412;SDS011;44209;52.952;6.790;2023-03-29T16:30:08;23.20;;;20.08;;
58412;SDS011;44209;52.952;6.790;2023-03-29T16:32:34;19.67;;;16.95;;
58412;SDS011;44209;52.952;6.790;2023-03-29T16:35:02;20.00;;;17.90;;
58412;SDS011;44209;52.952;6.790;2023-03-29T16:37:38;16.02;;;13.20;;
58412;SDS011;44209;52.952;6.790;2023-03-29T16:40:03;20.02;;;17.35;;
58412;SDS011;44209;52.952;6.790;2023-03-29T16:42:31;18.88;;;16.25;;
58412;SDS011;44209;52.952;6.790;2023-03-29T16:44:58;25.67;;;22.92;;
58412;SDS011;44209;52.952;6.790;2023-03-29T16:47:26;40.45;;;31.73;;
58412;SDS011;44209;52.952;6.790;2023-03-29T16:49:52;48.22;;;39.08;;
58412;SDS011;44209;52.952;6.790;2023-03-29T16:52:17;54.67;;;40.72;;
58412;SDS011;44209;52.952;6.790;2023-03-29T16:54:43;88.22;;;53.20;;
58412;SDS011;44209;52.952;6.790;2023-03-29T16:57:09;20.70;;;18.27;;
58412;SDS011;44209;52.952;6.790;2023-03-29T16:59:35;23.70;;;20.52;;
58412;SDS011;44209;52.952;6.790;2023-03-29T17:02:00;20.63;;;17.58;;
58412;SDS011;44209;52.952;6.790;2023-03-29T17:04:26;20.88;;;18.13;;
58412;SDS011;44209;52.952;6.790;2023-03-29T17:06:52;19.40;;;16.05;;
58412;SDS011;44209;52.952;6.790;2023-03-29T17:09:18;17.75;;;15.88;;
58412;SDS011;44209;52.952;6.790;2023-03-29T17:11:43;17.92;;;15.00;;
58412;SDS011;44209;52.952;6.790;2023-03-29T17:14:09;18.00;;;15.57;;
58412;SDS011;44209;52.952;6.790;2023-03-29T17:16:35;18.77;;;14.77;;
58412;SDS011;44209;52.952;6.790;2023-03-29T17:19:01;19.05;;;15.90;;
58412;SDS011;44209;52.952;6.790;2023-03-29T17:21:27;21.88;;;16.90;;
58412;SDS011;44209;52.952;6.790;2023-03-29T17:23:53;18.60;;;16.10;;
58412;SDS011;44209;52.952;6.790;2023-03-29T17:26:19;18.63;;;14.70;;
58412;SDS011;44209;52.952;6.790;2023-03-29T17:28:47;18.40;;;16.42;;
58412;SDS011;44209;52.952;6.790;2023-03-29T17:31:13;20.98;;;16.10;;